<?xml version="1.0" encoding="utf-8"?>
<gpx xmlns:xsi="http://www.w3.org/2001/XMLSchema-instance" xmlns:xsd="http://www.w3.org/2001/XMLSchema" version="1.1" creator="Shapelink.com" xmlns="http://www.topografix.com/GPX/1/1" xmlns:gpxtpx="http://www.garmin.com/xmlschemas/TrackPointExtension/v1">
  <metadata>
    <name>Övrigt 1.63 km, 2020-07-30</name>
    <desc></desc>
    <author><name>Marian Moron</name></author> 
    <time>2020-07-30T20:57:10Z</time>
  </metadata>
  <trk>
    <name>Övrigt 1.63 km, 2020-07-30</name>
    <trkseg>
      <trkpt lat="51.229725457997" lon="4.457820392091">
        <ele>8.4</ele>
        <time>2020-07-30T20:57:10Z</time>
      </trkpt>
      <trkpt lat="51.229823777684" lon="4.457964979866">
        <ele>5.8</ele>
        <time>2020-07-30T20:57:19Z</time>
      </trkpt>
      <trkpt lat="51.229929557262" lon="4.458376028242">
        <ele>0</ele>
        <time>2020-07-30T20:57:41Z</time>
      </trkpt>
      <trkpt lat="51.229982447051" lon="4.458790010283">
        <ele>0.6</ele>
        <time>2020-07-30T20:58:12Z</time>
      </trkpt>
      <trkpt lat="51.230400703861" lon="4.458700156315">
        <ele>2</ele>
        <time>2020-07-30T20:59:02Z</time>
      </trkpt>
      <trkpt lat="51.230463903387" lon="4.458649362001">
        <ele>2</ele>
        <time>2020-07-30T20:59:13Z</time>
      </trkpt>
      <trkpt lat="51.230713516369" lon="4.458610721442">
        <ele>2.2</ele>
        <time>2020-07-30T20:59:47Z</time>
      </trkpt>
      <trkpt lat="51.231137305233" lon="4.458482897467">
        <ele>0</ele>
        <time>2020-07-30T21:01:00Z</time>
      </trkpt>
      <trkpt lat="51.231319611558" lon="4.458307883395">
        <ele>0</ele>
        <time>2020-07-30T21:02:04Z</time>
      </trkpt>
      <trkpt lat="51.231416003408" lon="4.45825549652">
        <ele>0</ele>
        <time>2020-07-30T21:02:32Z</time>
      </trkpt>
      <trkpt lat="51.2315809592" lon="4.458297657477">
        <ele>0</ele>
        <time>2020-07-30T21:03:10Z</time>
      </trkpt>
      <trkpt lat="51.231737281635" lon="4.458970304952">
        <ele>0</ele>
        <time>2020-07-30T21:03:51Z</time>
      </trkpt>
      <trkpt lat="51.231797128401" lon="4.459452515659">
        <ele>5.6</ele>
        <time>2020-07-30T21:04:26Z</time>
      </trkpt>
      <trkpt lat="51.231814311296" lon="4.459788294573">
        <ele>7</ele>
        <time>2020-07-30T21:04:47Z</time>
      </trkpt>
      <trkpt lat="51.231933669552" lon="4.460490530155">
        <ele>3</ele>
        <time>2020-07-30T21:05:32Z</time>
      </trkpt>
      <trkpt lat="51.231893017337" lon="4.460863776162">
        <ele>0</ele>
        <time>2020-07-30T21:05:59Z</time>
      </trkpt>
      <trkpt lat="51.231805510301" lon="4.461438523045">
        <ele>2.4</ele>
        <time>2020-07-30T21:06:59Z</time>
      </trkpt>
      <trkpt lat="51.231592023308" lon="4.461585457752">
        <ele>4</ele>
        <time>2020-07-30T21:07:43Z</time>
      </trkpt>
      <trkpt lat="51.231611050221" lon="4.462305965876">
        <ele>0</ele>
        <time>2020-07-30T21:08:28Z</time>
      </trkpt>
      <trkpt lat="51.23161532499" lon="4.462481818138">
        <ele>0</ele>
        <time>2020-07-30T21:08:40Z</time>
      </trkpt>
      <trkpt lat="51.231641811794" lon="4.462749368386">
        <ele>0</ele>
        <time>2020-07-30T21:09:00Z</time>
      </trkpt>
      <trkpt lat="51.231571487653" lon="4.463350769711">
        <ele>2.8</ele>
        <time>2020-07-30T21:09:43Z</time>
      </trkpt>
      <trkpt lat="51.231660084336" lon="4.463422015861">
        <ele>2.8</ele>
        <time>2020-07-30T21:09:58Z</time>
      </trkpt>
      <trkpt lat="51.231719847283" lon="4.463496279495">
        <ele>1</ele>
        <time>2020-07-30T21:10:09Z</time>
      </trkpt>
      <trkpt lat="51.231883629609" lon="4.463502398282">
        <ele>2.6</ele>
        <time>2020-07-30T21:10:29Z</time>
      </trkpt>
      <trkpt lat="51.232029726126" lon="4.462829834626">
        <ele>0</ele>
        <time>2020-07-30T21:11:09Z</time>
      </trkpt>
      <trkpt lat="51.232140115749" lon="4.462141177722">
        <ele>0</ele>
        <time>2020-07-30T21:11:53Z</time>
      </trkpt>
      <trkpt lat="51.232100888457" lon="4.461850074335">
        <ele>0</ele>
        <time>2020-07-30T21:12:15Z</time>
      </trkpt>
      <trkpt lat="51.232002065856" lon="4.461143983079">
        <ele>0</ele>
        <time>2020-07-30T21:12:56Z</time>
      </trkpt>
      <trkpt lat="51.23187097294" lon="4.460491955078">
        <ele>0</ele>
        <time>2020-07-30T21:13:37Z</time>
      </trkpt>
      <trkpt lat="51.231788327406" lon="4.460070010232">
        <ele>0</ele>
        <time>2020-07-30T21:13:59Z</time>
      </trkpt>
      <trkpt lat="51.231728899735" lon="4.459863731673">
        <ele>0</ele>
        <time>2020-07-30T21:14:14Z</time>
      </trkpt>
      <trkpt lat="51.231545587582" lon="4.459784187442">
        <ele>0</ele>
        <time>2020-07-30T21:14:33Z</time>
      </trkpt>
      <trkpt lat="51.231102604167" lon="4.459783935985">
        <ele>0</ele>
        <time>2020-07-30T21:15:45Z</time>
      </trkpt>
      <trkpt lat="51.23104619398" lon="4.459792820799">
        <ele>0</ele>
        <time>2020-07-30T21:15:52Z</time>
      </trkpt>
      <trkpt lat="51.230604300212" lon="4.459912095236">
        <ele>0</ele>
        <time>2020-07-30T21:16:38Z</time>
      </trkpt>
      <trkpt lat="51.230551578061" lon="4.459449833451">
        <ele>2.4</ele>
        <time>2020-07-30T21:17:40Z</time>
      </trkpt>
      <trkpt lat="51.230429537597" lon="4.459274987017">
        <ele>0</ele>
        <time>2020-07-30T21:17:57Z</time>
      </trkpt>
      <trkpt lat="51.230370864297" lon="4.45896209069">
        <ele>0</ele>
        <time>2020-07-30T21:18:15Z</time>
      </trkpt>
      <trkpt lat="51.230351921203" lon="4.458957229188">
        <ele>0</ele>
        <time>2020-07-30T21:18:17Z</time>
      </trkpt>
      <trkpt lat="51.230180427529" lon="4.459008526416">
        <ele>0</ele>
        <time>2020-07-30T21:18:36Z</time>
      </trkpt>
      <trkpt lat="51.229958642455" lon="4.459087232457">
        <ele>0</ele>
        <time>2020-07-30T21:19:07Z</time>
      </trkpt>
      <trkpt lat="51.229625210473" lon="4.459141211893">
        <ele>0</ele>
        <time>2020-07-30T21:19:42Z</time>
      </trkpt>
      <trkpt lat="51.229198320306" lon="4.459217403364">
        <ele>0</ele>
        <time>2020-07-30T21:21:27Z</time>
      </trkpt>
      <trkpt lat="51.228774363804" lon="4.459369367211">
        <ele>0</ele>
        <time>2020-07-30T21:22:48Z</time>
      </trkpt>
      <trkpt lat="51.228641091594" lon="4.459292086093">
        <ele>0</ele>
        <time>2020-07-30T21:23:05Z</time>
      </trkpt>
      <trkpt lat="51.228607312537" lon="4.459242129969">
        <ele>0</ele>
        <time>2020-07-30T21:23:10Z</time>
      </trkpt>
      <trkpt lat="51.228504047529" lon="4.458691942053">
        <ele>0</ele>
        <time>2020-07-30T21:24:24Z</time>
      </trkpt>
      <trkpt lat="51.228497593466" lon="4.458552383418">
        <ele>0</ele>
        <time>2020-07-30T21:24:37Z</time>
      </trkpt>
      <trkpt lat="51.228644109078" lon="4.458145609811">
        <ele>2.6</ele>
        <time>2020-07-30T21:25:10Z</time>
      </trkpt>
      <trkpt lat="51.228904869987" lon="4.45813731173">
        <ele>4.4</ele>
        <time>2020-07-30T21:25:38Z</time>
      </trkpt>
      <trkpt lat="51.229349948877" lon="4.458032370342">
        <ele>2.2</ele>
        <time>2020-07-30T21:26:19Z</time>
      </trkpt>
      <trkpt lat="51.229466457287" lon="4.457982414218">
        <ele>3.6</ele>
        <time>2020-07-30T21:26:32Z</time>
      </trkpt>
      <trkpt lat="51.229731744422" lon="4.457885351816">
        <ele>10.6</ele>
        <time>2020-07-30T21:27:08Z</time>
      </trkpt>
    </trkseg>
  </trk>
</gpx>